createdAt,value
2023-05-17T00:00:58.119Z,68.16
2023-05-17T00:03:26.058Z,68.40
2023-05-17T00:05:53.476Z,68.62
2023-05-17T00:08:20.335Z,68.58
2023-05-17T00:10:47.045Z,68.59
2023-05-17T00:13:13.807Z,68.96
2023-05-17T00:15:40.673Z,68.91
2023-05-17T00:18:07.587Z,68.92
2023-05-17T00:20:35.951Z,68.97
2023-05-17T00:23:03.226Z,68.84
2023-05-17T00:25:30.672Z,69.05
2023-05-17T00:27:57.605Z,68.84
2023-05-17T00:30:24.315Z,69.03
2023-05-17T00:32:51.204Z,69.01
2023-05-17T00:35:18.082Z,69.14
2023-05-17T00:37:48.005Z,69.41
2023-05-17T00:40:16.419Z,69.41
2023-05-17T00:42:43.295Z,69.54
2023-05-17T00:45:10.950Z,69.53
2023-05-17T00:47:37.881Z,69.65
2023-05-17T00:50:06.398Z,69.61
2023-05-17T00:52:33.427Z,69.79
2023-05-17T00:55:00.422Z,69.94
2023-05-17T00:57:29.251Z,70.00
2023-05-17T00:59:56.921Z,69.97
2023-05-17T01:02:23.972Z,70.21
2023-05-17T01:04:51.049Z,70.44
2023-05-17T01:07:18.201Z,70.37
2023-05-17T01:09:45.682Z,70.63
2023-05-17T01:12:30.794Z,70.39
2023-05-17T01:15:03.590Z,70.34
2023-05-17T01:17:48.804Z,70.39
2023-05-17T01:20:27.012Z,70.42
2023-05-17T01:23:11.941Z,70.46
2023-05-17T01:25:55.483Z,70.14
2023-05-17T01:28:24.812Z,70.34
2023-05-17T01:30:52.395Z,70.68
2023-05-17T01:33:20.587Z,71.14
2023-05-17T01:35:47.581Z,71.32
2023-05-17T01:38:14.384Z,71.39
2023-05-17T01:40:49.797Z,71.79
2023-05-17T01:43:35.514Z,71.76
2023-05-17T01:46:14.486Z,71.79
2023-05-17T01:48:49.804Z,71.79
2023-05-17T01:51:20.287Z,71.87
2023-05-17T01:53:51.958Z,71.75
2023-05-17T01:56:33.543Z,71.96
2023-05-17T01:59:04.705Z,71.86
2023-05-17T02:01:33.082Z,71.86
2023-05-17T02:03:59.903Z,71.77
2023-05-17T02:06:26.675Z,71.82
2023-05-17T02:08:53.818Z,71.73
2023-05-17T02:11:20.706Z,72.11
2023-05-17T02:13:47.470Z,72.19
2023-05-17T02:16:14.275Z,72.05
2023-05-17T02:18:41.377Z,72.29
2023-05-17T02:21:08.302Z,72.69
2023-05-17T02:23:35.027Z,72.91
2023-05-17T02:26:01.791Z,73.13
2023-05-17T02:28:28.520Z,73.15
2023-05-17T02:30:56.617Z,73.01
2023-05-17T02:33:23.740Z,73.22
2023-05-17T02:35:50.713Z,73.22
2023-05-17T02:38:17.620Z,73.54
2023-05-17T02:40:44.408Z,73.75
2023-05-17T02:43:11.145Z,73.94
2023-05-17T02:45:37.880Z,74.15
2023-05-17T02:48:05.015Z,74.16
2023-05-17T02:50:31.901Z,74.26
2023-05-17T02:52:58.656Z,74.13
2023-05-17T02:55:25.559Z,73.96
2023-05-17T02:57:52.380Z,74.12
2023-05-17T03:02:53.008Z,74.31
2023-05-17T03:05:19.847Z,74.42
2023-05-17T03:07:46.574Z,74.19
2023-05-17T03:10:13.354Z,74.23
2023-05-17T03:12:40.132Z,74.42
2023-05-17T03:15:07.345Z,74.56
2023-05-17T03:17:34.201Z,74.60
2023-05-17T03:20:01.113Z,74.86
2023-05-17T03:22:28.266Z,74.79
2023-05-17T03:24:55.020Z,74.57
2023-05-17T03:27:21.831Z,74.45
2023-05-17T03:29:51.282Z,74.37
2023-05-17T03:32:18.094Z,74.49
2023-05-17T03:34:44.877Z,74.87
2023-05-17T03:37:11.641Z,74.92
2023-05-17T03:39:38.402Z,74.92
2023-05-17T03:42:06.423Z,75.00
2023-05-17T03:44:33.176Z,75.25
2023-05-17T03:46:59.998Z,75.55
2023-05-17T03:49:26.725Z,75.66
2023-05-17T03:51:53.473Z,75.64
2023-05-17T03:54:20.227Z,75.55
2023-05-17T03:56:49.203Z,75.54
2023-05-17T03:59:16.960Z,75.68
2023-05-17T04:01:45.658Z,75.56
2023-05-17T04:04:12.525Z,75.38
2023-05-17T04:06:41.224Z,75.71
2023-05-17T04:09:11.015Z,75.92
2023-05-17T04:11:38.384Z,76.00
2023-05-17T04:14:05.713Z,75.77
2023-05-17T04:16:32.592Z,75.78
2023-05-17T04:19:02.564Z,75.87
2023-05-17T04:21:29.557Z,76.16
2023-05-17T04:23:56.306Z,76.16
2023-05-17T04:26:23.634Z,76.28
2023-05-17T04:28:50.920Z,76.08
2023-05-17T04:31:18.289Z,76.48
2023-05-17T04:33:45.428Z,76.79
2023-05-17T04:36:12.298Z,76.75
2023-05-17T04:38:39.149Z,76.87
2023-05-17T04:41:06.788Z,77.20
2023-05-17T04:43:33.760Z,77.19
2023-05-17T04:46:00.975Z,77.13
2023-05-17T04:48:32.684Z,77.10
2023-05-17T04:51:06.897Z,77.18
2023-05-17T04:53:33.985Z,77.10
2023-05-17T04:56:00.832Z,77.10
2023-05-17T04:58:27.655Z,77.10
2023-05-17T05:00:54.522Z,77.18
2023-05-17T05:03:22.814Z,77.32
2023-05-17T05:05:49.814Z,77.14
2023-05-17T05:08:16.609Z,77.05
2023-05-17T05:10:43.489Z,76.84
2023-05-17T05:13:10.223Z,76.84
2023-05-17T05:15:37.773Z,76.98
2023-05-17T05:18:04.811Z,77.25
2023-05-17T05:20:32.225Z,77.21
2023-05-17T05:23:00.959Z,77.27
2023-05-17T05:25:28.474Z,77.36
2023-05-17T05:28:00.581Z,77.29
2023-05-17T05:30:27.498Z,77.03
2023-05-17T05:32:54.354Z,76.86
2023-05-17T05:35:26.467Z,76.92
2023-05-17T05:37:54.641Z,77.31
2023-05-17T05:40:21.547Z,76.43
2023-05-17T05:42:48.487Z,76.68
2023-05-17T05:45:15.312Z,76.79
2023-05-17T05:47:42.166Z,76.93
2023-05-17T05:50:09.875Z,76.98
2023-05-17T05:52:36.759Z,76.95
2023-05-17T05:55:04.060Z,77.08
2023-05-17T05:57:30.844Z,77.11
2023-05-17T05:59:57.700Z,77.17
2023-05-17T06:02:24.787Z,76.88
2023-05-17T06:04:51.575Z,76.89
2023-05-17T06:07:18.545Z,76.85
2023-05-17T06:09:45.331Z,76.78
2023-05-17T06:12:12.176Z,76.75
2023-05-17T06:14:39.000Z,76.55
2023-05-17T06:17:05.899Z,76.47
2023-05-17T06:19:32.898Z,76.57
2023-05-17T06:21:59.857Z,76.43
2023-05-17T06:24:26.601Z,76.29
2023-05-17T06:26:53.364Z,76.33
2023-05-17T06:29:20.186Z,76.29
2023-05-17T06:31:46.955Z,76.17
2023-05-17T06:34:13.792Z,76.34
2023-05-17T06:36:40.934Z,76.31
2023-05-17T06:39:07.723Z,76.13
2023-05-17T06:41:35.157Z,76.10
2023-05-17T06:44:04.227Z,75.93
2023-05-17T06:46:31.000Z,75.89
2023-05-17T06:48:58.010Z,75.58
2023-05-17T06:51:24.957Z,75.67
2023-05-17T06:53:51.837Z,75.79
2023-05-17T06:56:19.763Z,75.68
2023-05-17T06:58:49.412Z,75.74
2023-05-17T07:01:19.594Z,75.65
2023-05-17T07:03:46.539Z,75.44
2023-05-17T07:06:13.536Z,75.31
2023-05-17T07:08:40.680Z,75.31
2023-05-17T07:11:07.801Z,75.20
2023-05-17T07:13:34.562Z,75.06
2023-05-17T07:16:01.335Z,74.92
2023-05-17T07:18:28.329Z,74.75
2023-05-17T07:20:55.226Z,74.79
2023-05-17T07:23:21.948Z,74.78
2023-05-17T07:25:48.905Z,74.71
2023-05-17T07:28:16.231Z,74.90
2023-05-17T07:30:43.042Z,75.22
2023-05-17T07:33:09.968Z,75.58
2023-05-17T07:35:36.912Z,75.80
2023-05-17T07:38:03.777Z,76.11
2023-05-17T07:40:30.588Z,76.50
2023-05-17T07:42:59.595Z,76.54
2023-05-17T07:45:26.662Z,76.62
2023-05-17T07:47:55.339Z,76.86
2023-05-17T07:50:22.357Z,77.17
2023-05-17T07:52:49.114Z,77.14
2023-05-17T07:55:17.056Z,76.42
2023-05-17T07:57:47.463Z,75.58
2023-05-17T08:00:14.883Z,73.78
2023-05-17T08:02:41.735Z,71.02
2023-05-17T08:05:08.991Z,68.00
2023-05-17T08:07:35.940Z,65.57
2023-05-17T08:10:02.891Z,62.70
2023-05-17T08:12:29.709Z,60.35
2023-05-17T08:14:57.695Z,58.71
2023-05-17T08:17:24.642Z,56.91
2023-05-17T08:19:51.478Z,55.42
2023-05-17T08:22:19.294Z,54.06
2023-05-17T08:24:46.993Z,53.41
2023-05-17T08:27:13.790Z,51.78
2023-05-17T08:29:40.922Z,50.94
2023-05-17T08:32:09.287Z,50.47
2023-05-17T08:34:39.978Z,50.39
2023-05-17T08:37:06.808Z,50.87
2023-05-17T08:39:33.879Z,50.49
2023-05-17T08:42:02.701Z,49.72
2023-05-17T08:44:29.600Z,49.56
2023-05-17T08:46:59.704Z,49.06
2023-05-17T08:49:28.933Z,49.05
2023-05-17T08:51:59.527Z,48.39
2023-05-17T08:54:26.826Z,47.62
2023-05-17T08:57:00.741Z,47.18
2023-05-17T08:59:33.994Z,46.96
2023-05-17T09:02:01.788Z,47.26
2023-05-17T09:04:31.165Z,47.38
2023-05-17T09:06:59.293Z,47.13
2023-05-17T09:09:26.356Z,47.07
2023-05-17T09:11:53.150Z,46.66
2023-05-17T09:14:19.973Z,46.12
2023-05-17T09:16:46.957Z,45.96
2023-05-17T09:19:18.018Z,45.57
2023-05-17T09:21:47.471Z,45.97
2023-05-17T09:24:14.410Z,46.28
2023-05-17T09:26:45.539Z,46.70
2023-05-17T09:29:15.366Z,45.89
2023-05-17T09:31:42.987Z,46.15
2023-05-17T09:34:12.963Z,45.54
2023-05-17T09:36:43.721Z,45.61
2023-05-17T09:39:13.447Z,45.41
2023-05-17T09:41:45.593Z,44.84
2023-05-17T09:44:14.094Z,44.35
2023-05-17T09:46:44.506Z,43.15
2023-05-17T09:49:11.531Z,42.23
2023-05-17T09:51:42.854Z,41.65
2023-05-17T09:54:10.577Z,40.69
2023-05-17T09:56:40.282Z,39.68
2023-05-17T09:59:16.232Z,39.53
2023-05-17T10:01:48.126Z,39.18
2023-05-17T10:04:20.727Z,38.00
2023-05-17T10:06:52.350Z,37.63
2023-05-17T10:09:24.354Z,37.71
2023-05-17T10:11:53.149Z,37.31
2023-05-17T10:14:33.960Z,37.87
2023-05-17T10:17:03.412Z,38.08
2023-05-17T10:19:31.431Z,37.92
2023-05-17T10:22:08.385Z,38.07
2023-05-17T10:24:46.730Z,38.77
2023-05-17T10:27:13.871Z,38.60
2023-05-17T10:29:42.277Z,38.89
2023-05-17T10:32:09.544Z,38.88
2023-05-17T10:34:39.750Z,38.87
2023-05-17T10:37:07.782Z,39.01
2023-05-17T10:39:38.810Z,38.91
2023-05-17T10:42:14.731Z,39.23
2023-05-17T10:44:42.452Z,40.11
2023-05-17T10:47:10.258Z,40.16
2023-05-17T10:49:45.317Z,40.05
2023-05-17T10:52:13.266Z,40.82
2023-05-17T10:54:43.337Z,41.13
2023-05-17T10:57:20.010Z,41.67
2023-05-17T10:59:58.504Z,41.78
2023-05-17T11:02:31.916Z,41.77
2023-05-17T11:05:00.570Z,41.43
2023-05-17T11:07:32.218Z,42.19
2023-05-17T11:10:10.788Z,42.85
2023-05-17T11:12:40.872Z,43.61
2023-05-17T11:15:08.842Z,44.55
2023-05-17T11:17:52.805Z,45.16
2023-05-17T11:20:25.840Z,45.97
2023-05-17T11:23:00.619Z,46.05
2023-05-17T11:25:36.246Z,46.38
2023-05-17T11:28:18.323Z,46.72
2023-05-17T11:30:51.533Z,47.16
2023-05-17T11:33:32.490Z,47.93
2023-05-17T11:36:05.453Z,48.57
2023-05-17T11:38:33.159Z,48.83
2023-05-17T11:43:52.129Z,48.93
2023-05-17T11:46:21.044Z,49.16
2023-05-17T11:48:50.314Z,49.52
2023-05-17T11:51:18.230Z,50.13
2023-05-17T11:53:47.253Z,50.04
2023-05-17T11:56:15.208Z,50.15
2023-05-17T11:58:43.472Z,50.49
2023-05-17T12:01:10.796Z,51.09
2023-05-17T12:03:37.737Z,51.23
2023-05-17T12:06:05.513Z,51.65
2023-05-17T12:08:34.869Z,51.36
2023-05-17T12:11:02.316Z,51.16
2023-05-17T12:13:30.397Z,50.57
2023-05-17T12:15:59.857Z,50.93
2023-05-17T12:18:40.028Z,50.59
2023-05-17T12:21:08.832Z,50.31
2023-05-17T12:23:50.976Z,50.85
2023-05-17T12:26:19.525Z,50.67
2023-05-17T12:28:59.959Z,50.74
2023-05-17T12:31:36.731Z,50.42
2023-05-17T12:34:06.083Z,50.07
2023-05-17T12:36:34.234Z,50.07
2023-05-17T12:39:01.855Z,49.38
2023-05-17T12:41:30.044Z,49.30
2023-05-17T12:44:13.865Z,49.80
2023-05-17T12:46:43.002Z,49.97
2023-05-17T12:49:11.932Z,49.93
2023-05-17T12:51:44.564Z,50.25
2023-05-17T12:54:25.106Z,50.27
2023-05-17T12:56:52.182Z,49.76
2023-05-17T12:59:26.062Z,49.64
2023-05-17T13:01:58.001Z,49.79
2023-05-17T13:04:34.534Z,49.80
2023-05-17T13:07:03.743Z,49.72
2023-05-17T13:09:32.157Z,49.38
2023-05-17T13:12:02.146Z,49.04
2023-05-17T13:14:36.488Z,48.82
2023-05-17T13:17:05.091Z,48.26
2023-05-17T13:19:32.254Z,47.88
2023-05-17T13:21:59.184Z,46.82
2023-05-17T13:24:28.199Z,46.64
2023-05-17T13:26:54.966Z,46.57
2023-05-17T13:29:35.237Z,46.08
2023-05-17T13:32:07.504Z,46.42
2023-05-17T13:34:34.336Z,46.99
2023-05-17T13:37:01.321Z,47.20
2023-05-17T13:39:28.800Z,46.20
2023-05-17T13:41:55.738Z,45.30
2023-05-17T13:44:22.846Z,44.22
2023-05-17T13:46:49.647Z,44.03
2023-05-17T13:49:17.520Z,43.91
2023-05-17T13:51:45.133Z,44.57
2023-05-17T13:54:11.993Z,45.71
2023-05-17T13:56:39.080Z,46.02
2023-05-17T13:59:05.844Z,45.79
2023-05-17T14:01:32.747Z,45.95
2023-05-17T14:04:00.894Z,45.22
2023-05-17T14:06:28.348Z,45.91
2023-05-17T14:08:55.999Z,45.46
2023-05-17T14:11:22.951Z,45.73
2023-05-17T14:13:49.800Z,46.36
2023-05-17T14:16:16.762Z,46.37
2023-05-17T14:18:43.649Z,45.97
2023-05-17T14:21:10.591Z,46.17
2023-05-17T14:23:37.819Z,45.97
2023-05-17T14:26:07.615Z,46.02
2023-05-17T14:28:38.182Z,46.95
2023-05-17T14:31:09.446Z,47.15
2023-05-17T14:33:36.823Z,47.79
2023-05-17T14:36:06.853Z,47.84
2023-05-17T14:38:33.672Z,47.87
2023-05-17T14:41:01.211Z,47.88
2023-05-17T14:43:29.278Z,48.09
2023-05-17T14:45:56.207Z,47.98
2023-05-17T14:48:23.044Z,48.00
2023-05-17T14:50:49.970Z,47.38
2023-05-17T14:53:16.782Z,46.80
2023-05-17T14:55:43.551Z,47.05
2023-05-17T14:58:13.636Z,46.50
2023-05-17T15:00:41.992Z,46.03
2023-05-17T15:03:09.341Z,45.60
2023-05-17T15:05:36.574Z,45.62
2023-05-17T15:08:03.398Z,46.04
2023-05-17T15:10:30.129Z,47.20
2023-05-17T15:12:57.041Z,47.06
2023-05-17T15:15:23.858Z,47.09
2023-05-17T15:17:50.644Z,46.85
2023-05-17T15:20:19.011Z,46.34
2023-05-17T15:22:45.889Z,46.64
2023-05-17T15:25:13.034Z,46.59
2023-05-17T15:27:39.784Z,46.61
2023-05-17T15:30:07.426Z,46.43
2023-05-17T15:32:34.350Z,46.23
2023-05-17T15:35:01.166Z,46.44
2023-05-17T15:37:28.352Z,47.45
2023-05-17T15:39:55.130Z,47.65
2023-05-17T15:42:21.890Z,48.01
2023-05-17T15:44:48.686Z,48.63
2023-05-17T15:47:15.398Z,48.82
2023-05-17T15:49:42.217Z,48.70
2023-05-17T15:52:09.405Z,48.43
2023-05-17T15:54:36.186Z,49.03
2023-05-17T15:57:02.948Z,49.46
2023-05-17T15:59:29.744Z,49.29
2023-05-17T16:01:56.574Z,49.76
2023-05-17T16:04:23.333Z,50.65
2023-05-17T16:06:50.162Z,50.92
2023-05-17T16:09:16.923Z,50.69
2023-05-17T16:11:43.813Z,50.85
2023-05-17T16:14:10.598Z,50.63
2023-05-17T16:16:37.375Z,50.63
2023-05-17T16:19:04.742Z,50.42
2023-05-17T16:21:32.800Z,50.24
2023-05-17T16:23:59.586Z,50.07
2023-05-17T16:26:26.661Z,49.56
2023-05-17T16:28:53.679Z,49.24
2023-05-17T16:31:20.537Z,49.06
2023-05-17T16:33:47.409Z,48.65
2023-05-17T16:36:14.238Z,48.64
2023-05-17T16:38:41.088Z,47.93
2023-05-17T16:41:08.069Z,48.23
2023-05-17T16:43:34.960Z,48.43
2023-05-17T16:46:02.119Z,48.45
2023-05-17T16:48:28.998Z,48.20
2023-05-17T16:50:56.172Z,47.62
2023-05-17T16:53:23.106Z,47.51
2023-05-17T16:55:49.921Z,47.75
2023-05-17T16:58:18.874Z,47.53
2023-05-17T17:00:45.934Z,48.14
2023-05-17T17:03:12.777Z,48.74
2023-05-17T17:05:39.636Z,48.41
2023-05-17T17:08:06.384Z,48.55
2023-05-17T17:10:33.297Z,48.49
2023-05-17T17:13:00.095Z,48.69
2023-05-17T17:15:27.451Z,48.67
2023-05-17T17:17:54.292Z,48.82
2023-05-17T17:20:21.250Z,48.38
2023-05-17T17:22:48.106Z,48.57
2023-05-17T17:25:14.974Z,48.77
2023-05-17T17:27:42.232Z,48.85
2023-05-17T17:30:09.446Z,49.10
2023-05-17T17:32:36.393Z,48.88
2023-05-17T17:35:03.342Z,48.57
2023-05-17T17:37:30.173Z,48.25
2023-05-17T17:39:56.951Z,48.41
2023-05-17T17:42:23.723Z,47.45
2023-05-17T17:44:50.594Z,45.82
2023-05-17T17:47:17.473Z,46.00
2023-05-17T17:49:44.348Z,45.88
2023-05-17T17:52:11.161Z,45.73
2023-05-17T17:54:37.937Z,45.41
2023-05-17T17:57:04.991Z,44.49
2023-05-17T17:59:31.784Z,44.67
2023-05-17T18:01:59.865Z,44.12
2023-05-17T18:04:27.106Z,44.10
2023-05-17T18:06:54.918Z,44.29
2023-05-17T18:09:23.403Z,43.91
2023-05-17T18:11:50.149Z,44.09
2023-05-17T18:14:16.967Z,43.91
2023-05-17T18:16:43.932Z,43.79
2023-05-17T18:19:10.821Z,43.65
2023-05-17T18:21:37.792Z,44.28
2023-05-17T18:24:04.882Z,44.38
2023-05-17T18:26:31.672Z,44.50
2023-05-17T18:28:58.473Z,44.26
2023-05-17T18:31:35.879Z,44.04
2023-05-17T18:34:02.890Z,44.04
2023-05-17T18:36:29.733Z,43.90
2023-05-17T18:39:00.978Z,44.15
2023-05-17T18:41:27.912Z,43.63
2023-05-17T18:43:54.722Z,43.61
2023-05-17T18:46:21.542Z,43.26
2023-05-17T18:48:48.877Z,43.14
2023-05-17T18:51:15.909Z,42.74
2023-05-17T18:53:43.414Z,42.40
2023-05-17T18:56:14.711Z,42.91
2023-05-17T18:58:41.512Z,42.74
2023-05-17T19:01:08.630Z,42.95
2023-05-17T19:03:35.537Z,42.89
2023-05-17T19:06:02.372Z,43.12
2023-05-17T19:08:29.212Z,43.68
2023-05-17T19:10:56.068Z,43.56
2023-05-17T19:13:22.782Z,44.21
2023-05-17T19:15:49.683Z,44.33
2023-05-17T19:18:17.633Z,44.23
2023-05-17T19:20:45.031Z,44.95
2023-05-17T19:23:11.938Z,45.72
2023-05-17T19:25:38.848Z,46.75
2023-05-17T19:28:05.614Z,47.79
2023-05-17T19:30:33.149Z,48.57
2023-05-17T19:33:00.449Z,49.25
2023-05-17T19:35:27.448Z,49.80
2023-05-17T19:37:56.733Z,50.50
2023-05-17T19:40:24.242Z,50.74
2023-05-17T19:42:51.311Z,51.33
2023-05-17T19:45:18.122Z,51.59
2023-05-17T19:47:45.076Z,52.16
2023-05-17T19:50:12.235Z,52.11
2023-05-17T19:52:39.317Z,52.94
2023-05-17T19:55:06.579Z,53.03
2023-05-17T19:57:33.391Z,53.46
2023-05-17T20:00:00.103Z,53.52
2023-05-17T20:02:27.097Z,53.43
2023-05-17T20:04:54.191Z,53.98
2023-05-17T20:07:25.756Z,54.09
2023-05-17T20:09:55.514Z,54.20
2023-05-17T20:12:25.775Z,54.71
2023-05-17T20:14:53.644Z,54.92
2023-05-17T20:17:20.767Z,55.26
2023-05-17T20:19:47.885Z,55.27
2023-05-17T20:22:14.844Z,55.31
2023-05-17T20:24:44.082Z,55.48
2023-05-17T20:27:11.389Z,55.53
2023-05-17T20:29:38.552Z,55.83
2023-05-17T20:32:06.338Z,55.60
2023-05-17T20:34:33.712Z,56.01
2023-05-17T20:37:01.190Z,56.13
2023-05-17T20:39:28.277Z,56.25
2023-05-17T20:42:01.377Z,56.58
2023-05-17T20:44:28.213Z,56.76
2023-05-17T20:46:56.857Z,56.76
2023-05-17T20:49:23.670Z,56.99
2023-05-17T20:51:50.458Z,57.20
2023-05-17T20:54:17.210Z,57.27
2023-05-17T20:56:44.071Z,57.29
2023-05-17T20:59:10.977Z,57.53
2023-05-17T21:01:37.975Z,57.53
2023-05-17T21:04:05.087Z,57.76
2023-05-17T21:06:32.834Z,57.50
2023-05-17T21:09:02.651Z,57.73
2023-05-17T21:11:29.902Z,57.53
2023-05-17T21:13:59.996Z,57.43
2023-05-17T21:16:27.130Z,57.31
2023-05-17T21:18:53.959Z,56.91
2023-05-17T21:21:21.310Z,56.65
2023-05-17T21:23:48.908Z,56.45
2023-05-17T21:26:16.240Z,56.20
2023-05-17T21:28:43.117Z,55.68
2023-05-17T21:31:10.105Z,55.63
2023-05-17T21:33:36.926Z,55.44
2023-05-17T21:36:03.937Z,55.60
2023-05-17T21:38:30.827Z,55.54
2023-05-17T21:40:57.658Z,55.21
2023-05-17T21:43:24.625Z,55.03
2023-05-17T21:45:52.013Z,54.74
2023-05-17T21:48:18.768Z,54.85
2023-05-17T21:50:45.695Z,54.45
2023-05-17T21:53:12.548Z,54.18
2023-05-17T21:55:56.367Z,54.16
2023-05-17T21:58:26.741Z,54.40
2023-05-17T22:00:53.966Z,54.19
2023-05-17T22:03:21.485Z,54.23
2023-05-17T22:05:48.435Z,53.95
2023-05-17T22:08:15.185Z,54.08
2023-05-17T22:10:42.258Z,54.11
2023-05-17T22:13:12.290Z,54.14
2023-05-17T22:15:39.324Z,54.11
2023-05-17T22:18:06.278Z,54.05
2023-05-17T22:20:33.264Z,54.32
2023-05-17T22:23:00.304Z,54.38
2023-05-17T22:25:27.216Z,54.57
2023-05-17T22:27:54.004Z,54.72
2023-05-17T22:30:21.580Z,54.66
2023-05-17T22:32:48.429Z,54.71
2023-05-17T22:35:15.234Z,54.99
2023-05-17T22:37:42.872Z,54.85
2023-05-17T22:40:10.914Z,55.03
2023-05-17T22:42:37.784Z,54.98
2023-05-17T22:45:04.961Z,55.18
2023-05-17T22:47:32.098Z,55.52
2023-05-17T22:50:00.845Z,55.66
2023-05-17T22:52:28.285Z,55.87
2023-05-17T22:54:55.091Z,55.79
2023-05-17T22:57:21.880Z,55.74
2023-05-17T22:59:48.752Z,55.92
2023-05-17T23:02:15.592Z,55.84
2023-05-17T23:04:46.025Z,56.02
2023-05-17T23:07:12.989Z,56.15
2023-05-17T23:09:40.746Z,56.30
2023-05-17T23:12:08.978Z,56.42
2023-05-17T23:14:36.977Z,56.56
2023-05-17T23:17:04.742Z,56.71
2023-05-17T23:19:33.209Z,56.80
2023-05-17T23:22:03.304Z,57.03
2023-05-17T23:24:30.265Z,56.91
2023-05-17T23:26:57.839Z,57.26
2023-05-17T23:29:25.987Z,57.32
2023-05-17T23:31:53.279Z,57.53
2023-05-17T23:34:20.148Z,57.54
2023-05-17T23:36:46.957Z,57.81
2023-05-17T23:39:13.722Z,57.86
2023-05-17T23:41:40.519Z,58.04
2023-05-17T23:44:08.043Z,58.09
2023-05-17T23:46:34.978Z,58.09
2023-05-17T23:49:02.424Z,58.13
2023-05-17T23:51:29.473Z,58.28
2023-05-17T23:53:57.399Z,58.52
2023-05-17T23:56:24.191Z,58.69
2023-05-17T23:58:51.056Z,58.68
